Mercs Jaffna — 4RBT — position and weather

sailwx.info

Track history (hours):
 
Tides and Currents Weather Stations Pressure Air Temp Water Temp Dewpoint Dewpoint Depression Visibility Wind Speed Wind Dir Waves Ship Positions

Mercs Jaffna

Last reported at 2017-Sep-22 01:58 UTC. Time now 2017-Sep-22 17:19 UTC.
Position N 51°49' E 003°20'.

Length 161 m; draft 9.4 m.

Type: Cargo ship. MMSI: 417222333.

Date/timePositionNaut miles runAvg speedWind from/ knotsBaromVisibWave heightAir tempDewpointWater temp
2017-Sep-22 01:58N 51°49' E 003°20'0 0.0
2017-Sep-22 01:18N 51°49' E 003°20'0 0.0
2017-Sep-22 01:01N 51°49' E 003°20'0 0.0
2017-Sep-22 00:25N 51°49' E 003°20'0 0.2
2017-Sep-21 23:58N 51°49' E 003°20'0 0.2
2017-Sep-21 23:28N 51°49' E 003°20'0 0.0
2017-Sep-21 23:01N 51°49' E 003°20'0 0.0
2017-Sep-21 22:28N 51°49' E 003°20'0 0.0
2017-Sep-21 22:01N 51°49' E 003°20'0 0.0
2017-Sep-21 21:31N 51°49' E 003°20'0 0.0
2017-Sep-21 21:01N 51°48' E 003°20'0 0.0
2017-Sep-21 20:28N 51°49' E 003°20'0 0.1
2017-Sep-21 19:58N 51°49' E 003°20'0 0.3
2017-Sep-21 19:22N 51°49' E 003°20'0 0.1
2017-Sep-21 18:37N 51°49' E 003°20'0 0.0
2017-Sep-21 15:10N 51°49' E 003°20'0 0.0
2017-Sep-21 14:52N 51°49' E 003°20'0 0.0
2017-Sep-21 14:22N 51°49' E 003°20'0 0.0
2017-Sep-21 12:37N 51°49' E 003°20'0 0.1
2017-Sep-21 12:25N 51°49' E 003°20'0 0.3
2017-Sep-21 11:58N 51°49' E 003°20'0 0.2
2017-Sep-21 11:19N 51°49' E 003°20'0 0.0
2017-Sep-21 10:46N 51°49' E 003°20'0 0.0
2017-Sep-21 10:13N 51°49' E 003°20'0 0.0
2017-Sep-21 10:01N 51°49' E 003°20'0 0.0
2017-Sep-21 09:27N 51°49' E 003°20'0 0.0
2017-Sep-21 08:51N 51°49' E 003°20'0 0.0
2017-Sep-21 08:22N 51°49' E 003°20'0 0.0
2017-Sep-21 07:58N 51°49' E 003°20'0 0.3
2017-Sep-21 07:28N 51°49' E 003°20'0 0.1
2017-Sep-21 06:49N 51°49' E 003°20'0 0.1
2017-Sep-21 06:28N 51°49' E 003°20'0 0.0
2017-Sep-21 05:58N 51°49' E 003°20'0 0.0
2017-Sep-21 05:25N 51°49' E 003°20'0 0.0
2017-Sep-21 05:00N 51°49' E 003°20'0 0.0
2017-Sep-21 04:28N 51°49' E 003°20'0 0.0
2017-Sep-21 03:55N 51°49' E 003°20'0 0.0
2017-Sep-21 03:31N 51°49' E 003°20'0 0.0
2017-Sep-21 02:55N 51°49' E 003°20'0 0.0
2017-Sep-21 02:12N 51°49' E 003°20'0 0.0
2017-Sep-21 01:52N 51°49' E 003°20'0 0.0
2017-Sep-21 01:24N 51°49' E 003°20'0 0.0
2017-Sep-21 01:01N 51°49' E 003°20'0 0.0
2017-Sep-21 00:28N 51°49' E 003°20'0 0.0
2017-Sep-20 23:49N 51°49' E 003°20'0 0.3
2017-Sep-20 23:30N 51°49' E 003°20'0 0.1
2017-Sep-20 22:43N 51°49' E 003°20'0 0.1
2017-Sep-20 22:25N 51°49' E 003°20'0 0.0
2017-Sep-20 21:30N 51°49' E 003°20'0 0.1
2017-Sep-20 19:10N 51°49' E 003°20'0 0.3
2017-Sep-20 18:58N 51°49' E 003°20'0 0.0
2017-Sep-20 11:52N 51°49' E 003°20'0 0.1
2017-Sep-20 09:04N 51°49' E 003°20'0 0.2
2017-Sep-20 08:52N 51°49' E 003°20'0 0.0
2017-Sep-20 08:25N 51°49' E 003°20'1 1.5
2017-Sep-20 08:00N 51°49' E 003°19'5 8.9
2017-Sep-20 07:27N 51°54' E 003°19'713.4
2017-Sep-20 06:55N 52°01' E 003°21'712.5
2017-Sep-20 06:21N 52°03' E 003°31'515.1
2017-Sep-20 05:59N 52°04' E 003°40'714.4
2017-Sep-20 05:30N 52°03' E 003°52'510.9
2017-Sep-20 05:01N 52°01' E 003°60'4 7.7
2017-Sep-20 04:30N 51°58' E 004°03'0 0.1
2017-Sep-20 03:56N 51°58' E 004°03'0 0.0
2017-Sep-20 03:29N 51°58' E 004°03'0 0.0
2017-Sep-20 03:00N 51°58' E 004°03'0 0.0
2017-Sep-20 02:30N 51°58' E 004°03'0 0.0
2017-Sep-20 02:01N 51°58' E 004°03'0 0.0
2017-Sep-20 01:30N 51°58' E 004°03'0 0.0
2017-Sep-20 01:00N 51°58' E 004°03'0 0.0
2017-Sep-20 00:30N 51°58' E 004°03'0 0.0
2017-Sep-20 00:00N 51°58' E 004°03'0 0.0
2017-Sep-19 23:30N 51°58' E 004°03'0 0.0
2017-Sep-19 23:01N 51°58' E 004°03'0 0.0
2017-Sep-19 22:31N 51°58' E 004°03'0 0.0
2017-Sep-19 22:00N 51°58' E 004°03'0 0.0
2017-Sep-19 21:31N 51°58' E 004°03'0 0.0
2017-Sep-19 21:00N 51°58' E 004°03'1 1.1
2017-Sep-19 20:30N 51°58' E 004°04'3 6.2
2017-Sep-19 20:00N 51°60' E 004°00'714.7
2017-Sep-19 19:30N 51°60' E 003°48'611.0
2017-Sep-19 19:00N 51°58' E 003°40'510.0
2017-Sep-19 18:30N 51°57' E 003°32'610.6
2017-Sep-19 17:56N 51°55' E 003°23'4 7.7
2017-Sep-19 17:26N 51°54' E 003°17'4 8.2
2017-Sep-19 17:00N 51°53' E 003°11'711.7
2017-Sep-19 16:27N 51°51' E 003°01'611.9
2017-Sep-19 15:59N 51°49' E 002°53'713.8
2017-Sep-19 15:28N 51°46' E 002°42'714.4
2017-Sep-19 14:59N 51°40' E 002°43'714.0
2017-Sep-19 14:30N 51°33' E 002°41'714.3
2017-Sep-19 14:00N 51°26' E 002°37'1 1.0
2017-Sep-19 13:28N 51°26' E 002°37'0 0.0
2017-Sep-19 12:55N 51°26' E 002°37'0 0.0
2017-Sep-19 12:07N 51°26' E 002°37'0 0.0
2017-Sep-19 11:58N 51°26' E 002°37'0 0.1
2017-Sep-19 11:28N 51°26' E 002°37'0 0.1
2017-Sep-19 10:58N 51°26' E 002°37'0 0.1
2017-Sep-19 10:31N 51°25' E 002°37'0 0.1
2017-Sep-19 09:58N 51°25' E 002°37'0 0.1
2017-Sep-19 09:28N 51°25' E 002°37'0 0.1
2017-Sep-19 08:58N 51°25' E 002°37'0 0.0
2017-Sep-19 08:28N 51°25' E 002°37'0 0.0
2017-Sep-19 07:52N 51°25' E 002°37'0 0.0
2017-Sep-19 07:28N 51°25' E 002°37'0 0.0
2017-Sep-19 06:55N 51°25' E 002°37'0 0.0
2017-Sep-19 06:28N 51°25' E 002°37'0 0.0
2017-Sep-19 05:58N 51°25' E 002°37'0 0.0
2017-Sep-19 05:28N 51°25' E 002°37'0 0.1
2017-Sep-19 04:58N 51°25' E 002°37'0 0.1
2017-Sep-19 04:28N 51°25' E 002°37'0 0.0
2017-Sep-19 03:58N 51°25' E 002°37'0 0.0
2017-Sep-19 03:28N 51°25' E 002°37'0 0.1
2017-Sep-19 02:58N 51°25' E 002°37'0 0.1
2017-Sep-19 02:22N 51°26' E 002°37'0 0.0
2017-Sep-18 23:07N 51°26' E 002°37'0 0.1
2017-Sep-18 19:49N 51°25' E 002°37'0 0.0
2017-Sep-18 16:58N 51°25' E 002°37'0 0.0
2017-Sep-18 16:28N 51°25' E 002°37'0 0.0
2017-Sep-18 15:50N 51°25' E 002°37'0 0.1
2017-Sep-18 14:18N 51°26' E 002°37'0 0.1
2017-Sep-18 13:48N 51°26' E 002°37'0 0.0
2017-Sep-18 12:54N 51°26' E 002°37'0 0.0
2017-Sep-18 11:51N 51°26' E 002°37'0 0.1
2017-Sep-18 11:26N 51°26' E 002°37'0 0.1
2017-Sep-18 08:14N 51°25' E 002°37'0 0.0
2017-Sep-18 07:45N 51°25' E 002°37'0 0.0
2017-Sep-18 07:30N 51°25' E 002°37'0 0.0
2017-Sep-18 06:08N 51°25' E 002°37'0 0.0
2017-Sep-18 05:50N 51°25' E 002°37'0 0.0
2017-Sep-18 05:26N 51°25' E 002°37'0 0.0
2017-Sep-18 04:08N 51°25' E 002°37'0 0.1
2017-Sep-18 04:00N 51°25' E 002°37'0 0.1
2017-Sep-18 02:27N 51°26' E 002°37'0 0.1
2017-Sep-18 01:57N 51°26' E 002°37'0 0.0
2017-Sep-18 00:41N 51°26' E 002°37'0 0.0
2017-Sep-18 00:20N 51°26' E 002°37'0 0.0
2017-Sep-17 23:57N 51°26' E 002°37'0 0.0
2017-Sep-17 23:29N 51°26' E 002°37'0 0.1
2017-Sep-17 23:00N 51°26' E 002°37'0 0.0
2017-Sep-17 22:30N 51°26' E 002°37'0 0.0
2017-Sep-17 21:59N 51°26' E 002°37'0 0.1
2017-Sep-17 21:29N 51°26' E 002°37'0 0.1
2017-Sep-17 20:59N 51°25' E 002°37'0 0.1
2017-Sep-17 20:29N 51°25' E 002°37'0 0.1
2017-Sep-17 19:59N 51°25' E 002°37'0 0.0
2017-Sep-17 19:26N 51°25' E 002°37'0 0.0
2017-Sep-17 18:59N 51°25' E 002°37'0 0.0
2017-Sep-17 18:29N 51°25' E 002°37'0 0.0
2017-Sep-17 18:00N 51°25' E 002°37'0 0.0
2017-Sep-17 17:30N 51°25' E 002°37'0 0.0
2017-Sep-17 16:59N 51°25' E 002°37'0 0.1
2017-Sep-17 16:29N 51°25' E 002°37'0 0.1
2017-Sep-17 16:00N 51°25' E 002°37'0 0.1
2017-Sep-17 15:30N 51°26' E 002°37'0 0.2
2017-Sep-17 14:59N 51°26' E 002°37'0 0.1
2017-Sep-17 14:29N 51°26' E 002°37'0 0.0
2017-Sep-17 13:59N 51°26' E 002°37'0 0.0
2017-Sep-17 13:29N 51°26' E 002°37'0 0.0
2017-Sep-17 12:59N 51°26' E 002°37'0 0.0
2017-Sep-17 12:29N 51°26' E 002°37'0 0.0
2017-Sep-17 11:59N 51°26' E 002°37'0 0.0
2017-Sep-17 11:30N 51°26' E 002°37'0 0.0
2017-Sep-17 10:59N 51°26' E 002°37'0 0.0
2017-Sep-17 10:29N 51°26' E 002°37'0 0.0
2017-Sep-17 10:00N 51°26' E 002°37'0 0.0
2017-Sep-17 09:29N 51°26' E 002°37'0 0.2
2017-Sep-17 08:59N 51°26' E 002°37'0 0.3
2017-Sep-17 08:30N 51°26' E 002°37'0 0.0
2017-Sep-17 08:00N 51°26' E 002°37'0 0.0
2017-Sep-17 07:29N 51°25' E 002°37'0 0.1
2017-Sep-17 06:59N 51°25' E 002°37'0 0.0
2017-Sep-17 06:29N 51°25' E 002°37'0 0.0
2017-Sep-17 05:59N 51°25' E 002°37'0 0.0
2017-Sep-17 05:30N 51°25' E 002°37'0 0.2
2017-Sep-17 04:59N 51°25' E 002°37'0 0.1
2017-Sep-17 04:29N 51°26' E 002°37'0 0.1
2017-Sep-17 03:59N 51°26' E 002°37'0 0.0
2017-Sep-17 03:29N 51°26' E 002°37'0 0.3
2017-Sep-17 02:59N 51°26' E 002°37'0 0.2
2017-Sep-17 02:30N 51°26' E 002°37'0 0.0
2017-Sep-17 02:00N 51°26' E 002°37'0 0.1
2017-Sep-17 01:29N 51°26' E 002°37'0 0.0
2017-Sep-17 01:00N 51°26' E 002°37'0 0.0
2017-Sep-17 00:29N 51°26' E 002°37'0 0.0
2017-Sep-16 23:59N 51°26' E 002°37'0 0.0
2017-Sep-16 23:30N 51°26' E 002°37'0 0.0
2017-Sep-16 22:59N 51°26' E 002°37'0 0.0
2017-Sep-16 22:30N 51°26' E 002°37'0 0.1
2017-Sep-16 22:00N 51°26' E 002°37'0 0.0
2017-Sep-16 21:29N 51°26' E 002°37'0 0.0
2017-Sep-16 20:59N 51°26' E 002°37'0 0.0
2017-Sep-16 20:29N 51°26' E 002°37'0 0.0
2017-Sep-16 20:00N 51°26' E 002°37'0 0.1
2017-Sep-16 19:29N 51°26' E 002°37'0 0.2
2017-Sep-16 18:56N 51°26' E 002°37'0 0.1
2017-Sep-16 18:29N 51°25' E 002°37'0 0.0
2017-Sep-16 17:59N 51°26' E 002°37'0 0.0
2017-Sep-16 17:29N 51°26' E 002°37'0 0.0
2017-Sep-16 16:59N 51°25' E 002°37'0 0.0
2017-Sep-16 16:29N 51°26' E 002°37'0 0.0
2017-Sep-16 15:59N 51°25' E 002°37'0 0.0
2017-Sep-16 15:29N 51°25' E 002°37'0 0.1
2017-Sep-16 14:59N 51°25' E 002°37'0 0.1
2017-Sep-16 14:29N 51°26' E 002°37'0 0.1
2017-Sep-16 13:56N 51°26' E 002°37'0 0.0
2017-Sep-16 13:30N 51°26' E 002°37'0 0.1
2017-Sep-16 12:59N 51°26' E 002°37'0 0.0
2017-Sep-16 12:29N 51°26' E 002°37'0 0.0
2017-Sep-16 11:56N 51°26' E 002°37'0 0.0
2017-Sep-16 11:29N 51°26' E 002°37'0 0.0
2017-Sep-16 10:59N 51°26' E 002°37'0 0.0
2017-Sep-16 10:30N 51°26' E 002°37'0 0.0
2017-Sep-16 09:59N 51°26' E 002°37'0 0.0
2017-Sep-16 09:29N 51°26' E 002°37'0 0.0
2017-Sep-16 08:59N 51°26' E 002°37'0 0.1
2017-Sep-16 08:29N 51°26' E 002°37'0 0.1
2017-Sep-16 07:53N 51°26' E 002°37'0 0.1
2017-Sep-16 07:29N 51°25' E 002°37'0 0.0
2017-Sep-16 06:56N 51°25' E 002°37'0 0.1
2017-Sep-16 06:30N 51°25' E 002°37'0 0.0
2017-Sep-16 05:59N 51°25' E 002°37'0 0.1
2017-Sep-16 05:27N 51°25' E 002°37'0 0.0
2017-Sep-16 04:59N 51°25' E 002°37'0 0.0
2017-Sep-16 04:29N 51°25' E 002°37'0 0.0
2017-Sep-16 03:54N 51°25' E 002°37'0 0.0
2017-Sep-16 03:29N 51°25' E 002°37'0 0.0
2017-Sep-16 02:59N 51°25' E 002°37'0 0.1
2017-Sep-16 02:29N 51°25' E 002°37'0 0.1
2017-Sep-16 01:59N 51°25' E 002°37'0 0.0
2017-Sep-16 01:30N 51°25' E 002°37'0 0.0
2017-Sep-16 00:59N 51°25' E 002°37'0 0.0
2017-Sep-16 00:29N 51°25' E 002°37'0 0.1
2017-Sep-15 23:59N 51°25' E 002°37'0 0.1
2017-Sep-15 23:29N 51°26' E 002°37'0 0.1
2017-Sep-15 22:59N 51°26' E 002°37'0 0.0
2017-Sep-15 22:29N 51°26' E 002°37'0 0.0
2017-Sep-15 21:59N 51°26' E 002°37'0 0.0
2017-Sep-15 21:26N 51°26' E 002°37'0 0.0
2017-Sep-15 20:59N 51°26' E 002°37'0 0.1
2017-Sep-15 20:29N 51°26' E 002°37'0 0.0
2017-Sep-15 19:57N 51°26' E 002°37'0 0.1
2017-Sep-15 19:29N 51°26' E 002°37'0 0.1
2017-Sep-15 18:59N 51°25' E 002°37'0 0.0
2017-Sep-15 18:29N 51°26' E 002°37'0 0.0
2017-Sep-15 17:59N 51°25' E 002°37'0 0.1
2017-Sep-15 17:26N 51°25' E 002°37'0 0.1
2017-Sep-15 16:59N 51°25' E 002°37'0 0.0
2017-Sep-15 16:29N 51°25' E 002°37'0 0.0
2017-Sep-15 15:59N 51°25' E 002°37'0 0.0
2017-Sep-15 15:29N 51°25' E 002°37'0 0.0
2017-Sep-15 14:59N 51°25' E 002°37'0 0.0
2017-Sep-15 14:29N 51°25' E 002°37'0 0.1
2017-Sep-15 13:59N 51°25' E 002°37'0 0.1
2017-Sep-15 13:29N 51°25' E 002°37'0 0.1
2017-Sep-15 12:59N 51°25' E 002°37'0 0.0
2017-Sep-15 12:29N 51°26' E 002°37'0 0.0
2017-Sep-15 11:59N 51°26' E 002°37'0 0.1
2017-Sep-15 11:29N 51°26' E 002°37'0 0.1
2017-Sep-15 10:59N 51°26' E 002°37'0 0.0
2017-Sep-15 10:29N 51°26' E 002°37'0 0.0
2017-Sep-15 09:57N 51°26' E 002°37'0 0.0
2017-Sep-15 09:29N 51°26' E 002°37'0 0.0
2017-Sep-15 08:59N 51°26' E 002°37'0 0.0
2017-Sep-15 08:29N 51°26' E 002°37'0 0.0
2017-Sep-15 07:59N 51°26' E 002°37'0 0.0
2017-Sep-15 07:27N 51°26' E 002°37'0 0.0
2017-Sep-15 06:59N 51°26' E 002°37'0 0.1
2017-Sep-15 06:29N 51°26' E 002°37'0 0.1
2017-Sep-15 05:59N 51°25' E 002°37'0 0.0
2017-Sep-15 05:29N 51°25' E 002°37'0 0.1
2017-Sep-15 05:00N 51°25' E 002°37'0 0.1
2017-Sep-15 04:23N 51°25' E 002°37'0 0.1
2017-Sep-15 03:59N 51°25' E 002°37'0 0.0
2017-Sep-15 03:29N 51°25' E 002°37'0 0.0
2017-Sep-15 02:59N 51°25' E 002°37'0 0.0
2017-Sep-15 02:29N 51°25' E 002°37'0 0.0
2017-Sep-15 01:59N 51°25' E 002°37'0 0.0
2017-Sep-15 01:29N 51°25' E 002°37'0 0.1
2017-Sep-15 00:59N 51°25' E 002°37'0 0.1
2017-Sep-15 00:29N 51°25' E 002°37'0 0.0
2017-Sep-14 23:59N 51°25' E 002°37'0 0.0
2017-Sep-14 23:26N 51°25' E 002°37'0 0.1
2017-Sep-14 22:59N 51°25' E 002°37'0 0.4
2017-Sep-14 22:30N 51°25' E 002°37'3 5.8
2017-Sep-14 22:01N 51°23' E 002°41'4 8.0
2017-Sep-14 21:30N 51°22' E 002°47'713.2
2017-Sep-14 21:00N 51°23' E 002°57'713.2
2017-Sep-14 20:30N 51°24' E 003°08'713.6
2017-Sep-14 20:00N 51°25' E 003°19'713.5
2017-Sep-14 19:30N 51°25' E 003°29'510.4
2017-Sep-14 19:00N 51°26' E 003°37'612.1
2017-Sep-14 18:30N 51°22' E 003°45'612.8
2017-Sep-14 18:00N 51°22' E 003°55'611.1
2017-Sep-14 17:30N 51°26' E 004°02'510.8
2017-Sep-14 17:00N 51°23' E 004°09'5 9.6
2017-Sep-14 16:31N 51°21' E 004°16'3 6.4
2017-Sep-14 16:00N 51°17' E 004°15'0 0.1
2017-Sep-14 15:30N 51°17' E 004°15'0 0.1
2017-Sep-14 15:00N 51°17' E 004°15'0 0.0
2017-Sep-14 14:30N 51°17' E 004°15'0 0.0
2017-Sep-14 14:00N 51°17' E 004°15'0 0.0
2017-Sep-14 13:30N 51°17' E 004°15'0 0.0
2017-Sep-14 13:00N 51°17' E 004°15'0 0.0
2017-Sep-14 12:30N 51°17' E 004°15'0 0.0
2017-Sep-14 12:00N 51°17' E 004°15'0 0.0
2017-Sep-14 11:27N 51°17' E 004°15'0 0.0
2017-Sep-14 11:00N 51°17' E 004°15'0 0.0
2017-Sep-14 10:30N 51°17' E 004°15'0 0.0
2017-Sep-14 10:00N 51°17' E 004°15'0 0.0
2017-Sep-14 09:30N 51°17' E 004°15'0 0.0
2017-Sep-14 09:00N 51°17' E 004°15'0 0.0
2017-Sep-14 08:31N 51°17' E 004°15'0 0.0
2017-Sep-14 08:00N 51°17' E 004°15'0 0.0
2017-Sep-14 07:30N 51°17' E 004°15'0 0.0
2017-Sep-14 07:00N 51°17' E 004°15'0 0.0
2017-Sep-14 06:30N 51°17' E 004°15'0 0.0
2017-Sep-14 06:00N 51°17' E 004°15'0 0.0
2017-Sep-14 05:30N 51°17' E 004°15'0 0.0
2017-Sep-14 05:00N 51°17' E 004°15'0 0.0
2017-Sep-14 04:30N 51°17' E 004°15'0 0.9
2017-Sep-14 04:00N 51°18' E 004°16'2 4.6
2017-Sep-14 03:30N 51°20' E 004°16'4 8.6
2017-Sep-14 03:01N 51°24' E 004°13'611.6
2017-Sep-14 02:30N 51°22' E 004°03'4 8.2
2017-Sep-14 02:00N 51°24' E 003°57'713.9
2017-Sep-14 01:30N 51°21' E 003°47'714.2
2017-Sep-14 01:00N 51°26' E 003°40'510.6
2017-Sep-14 00:31N 51°25' E 003°32'714.7
2017-Sep-14 00:01N 51°24' E 003°20'714.6
2017-Sep-13 23:31N 51°24' E 003°08'714.9
2017-Sep-13 23:01N 51°23' E 002°57'714.6
2017-Sep-13 22:30N 51°21' E 002°45'3 5.4
2017-Sep-13 22:00N 51°21' E 002°41'2 3.9
2017-Sep-13 21:30N 51°21' E 002°38'2 3.3
2017-Sep-13 21:00N 51°22' E 002°35'1 2.1
2017-Sep-13 20:30N 51°21' E 002°34'1 2.9
2017-Sep-13 20:00N 51°21' E 002°36'2 3.2
2017-Sep-13 19:30N 51°22' E 002°33'3 6.1
2017-Sep-13 19:00N 51°22' E 002°28'3 7.0
2017-Sep-13 18:30N 51°20' E 002°23'612.4
2017-Sep-13 18:00N 51°17' E 002°15'713.2
2017-Sep-13 17:31N 51°13' E 002°06'815.8
2017-Sep-13 17:01N 51°10' E 001°55'917.2
2017-Sep-13 16:31N 51°05' E 001°43'917.5
2017-Sep-13 16:01N 50°59' E 001°34'5416.0
2017-Sep-13 12:38N 50°25' E 000°28'217.6
2017-Sep-13 12:30N 50°25' E 000°24'917.7
2017-Sep-13 12:01N 50°22' E 000°11'917.4
2017-Sep-13 11:31N 50°20' W 000°02'917.2
2017-Sep-13 11:01N 50°18' W 000°15'2316.6
2017-Sep-13 09:37N 50°11' W 000°49'215.8
2017-Sep-13 09:30N 50°10' W 000°52'815.5
2017-Sep-13 09:00N 50°08' W 001°04'714.9
2017-Sep-13 08:30N 50°06' W 001°15'714.3
2017-Sep-13 08:01N 50°04' W 001°26'713.9
2017-Sep-13 07:30N 50°02' W 001°36'713.6
2017-Sep-13 07:00N 50°00' W 001°46'713.4
2017-Sep-13 06:30N 49°59' W 001°56'713.2
2017-Sep-13 06:00N 49°57' W 002°06'2814.4
2017-Sep-13 04:02N 49°50' W 002°49'015.1
2017-Sep-13 04:00N 49°50' W 002°49'1015.5
2017-Sep-13 03:22N 49°48' W 003°05'615.8
2017-Sep-13 03:00N 49°47' W 003°13'815.8
2017-Sep-13 02:30N 49°45' W 003°25'815.8
2017-Sep-13 02:00N 49°44' W 003°37'816.0
2017-Sep-13 01:30N 49°43' W 003°50'816.1
2017-Sep-13 01:00N 49°42' W 004°02'916.3
2017-Sep-13 00:28N 49°41' W 004°16'816.5
2017-Sep-12 23:58N 49°40' W 004°28'816.4
2017-Sep-12 23:30N 49°40' W 004°40'1016.7
2017-Sep-12 22:55N 49°40' W 004°55'716.9
2017-Sep-12 22:30N 49°41' W 005°06'917.2
2017-Sep-12 22:00N 49°42' W 005°19'1017.1
2017-Sep-12 21:25N 49°45' W 005°34'717.0
2017-Sep-12 21:00N 49°48' W 005°44'816.2
2017-Sep-12 20:30N 49°52' W 005°55'3513.8
2017-Sep-12 17:59N 50°26' W 005°59'714.0
2017-Sep-12 17:29N 50°33' W 005°60'613.7
2017-Sep-12 17:00N 50°40' W 005°60'714.1
2017-Sep-12 16:30N 50°47' W 005°60'6713.5
2017-Sep-12 11:34N 51°53' W 005°53'113.7
2017-Sep-12 11:30N 51°54' W 005°53'713.8
2017-Sep-12 11:00N 52°01' W 005°50'714.0
2017-Sep-12 10:30N 52°08' W 005°48'714.5
2017-Sep-12 10:00N 52°15' W 005°46'815.0
2017-Sep-12 09:30N 52°22' W 005°45'815.5
2017-Sep-12 09:00N 52°30' W 005°43'816.1
2017-Sep-12 08:30N 52°38' W 005°41'3916.4
2017-Sep-12 06:08N 53°17' W 005°48'317.4
2017-Sep-12 05:57N 53°18' W 005°53'712.0
2017-Sep-12 05:21N 53°20' W 006°05'3 9.5
2017-Sep-12 04:59N 53°21' W 006°10'  
Track history (hours):
 
Tides and Currents Weather Stations Pressure Air Temp Water Temp Dewpoint Dewpoint Depression Visibility Wind Speed Wind Dir Waves Ship Positions

Mercs Jaffna

Last reported at 2017-Sep-22 01:58 UTC. Time now 2017-Sep-22 17:19 UTC.
Position N 51°49' E 003°20'.

Length 161 m; draft 9.4 m.

Type: Cargo ship. MMSI: 417222333.

Date/timePositionNaut miles runAvg speedWind from/ knotsBaromVisibWave heightAir tempDewpointWater temp
2017-Sep-22 01:58N 51°49' E 003°20'0 0.0
2017-Sep-22 01:18N 51°49' E 003°20'0 0.0
2017-Sep-22 01:01N 51°49' E 003°20'0 0.0
2017-Sep-22 00:25N 51°49' E 003°20'0 0.2
2017-Sep-21 23:58N 51°49' E 003°20'0 0.2
2017-Sep-21 23:28N 51°49' E 003°20'0 0.0
2017-Sep-21 23:01N 51°49' E 003°20'0 0.0
2017-Sep-21 22:28N 51°49' E 003°20'0 0.0
2017-Sep-21 22:01N 51°49' E 003°20'0 0.0
2017-Sep-21 21:31N 51°49' E 003°20'0 0.0
2017-Sep-21 21:01N 51°48' E 003°20'0 0.0
2017-Sep-21 20:28N 51°49' E 003°20'0 0.1
2017-Sep-21 19:58N 51°49' E 003°20'0 0.3
2017-Sep-21 19:22N 51°49' E 003°20'0 0.1
2017-Sep-21 18:37N 51°49' E 003°20'0 0.0
2017-Sep-21 15:10N 51°49' E 003°20'0 0.0
2017-Sep-21 14:52N 51°49' E 003°20'0 0.0
2017-Sep-21 14:22N 51°49' E 003°20'0 0.0
2017-Sep-21 12:37N 51°49' E 003°20'0 0.1
2017-Sep-21 12:25N 51°49' E 003°20'0 0.3
2017-Sep-21 11:58N 51°49' E 003°20'0 0.2
2017-Sep-21 11:19N 51°49' E 003°20'0 0.0
2017-Sep-21 10:46N 51°49' E 003°20'0 0.0
2017-Sep-21 10:13N 51°49' E 003°20'0 0.0
2017-Sep-21 10:01N 51°49' E 003°20'0 0.0
2017-Sep-21 09:27N 51°49' E 003°20'0 0.0
2017-Sep-21 08:51N 51°49' E 003°20'0 0.0
2017-Sep-21 08:22N 51°49' E 003°20'0 0.0
2017-Sep-21 07:58N 51°49' E 003°20'0 0.3
2017-Sep-21 07:28N 51°49' E 003°20'0 0.1
2017-Sep-21 06:49N 51°49' E 003°20'0 0.1
2017-Sep-21 06:28N 51°49' E 003°20'0 0.0
2017-Sep-21 05:58N 51°49' E 003°20'0 0.0
2017-Sep-21 05:25N 51°49' E 003°20'0 0.0
2017-Sep-21 05:00N 51°49' E 003°20'0 0.0
2017-Sep-21 04:28N 51°49' E 003°20'0 0.0
2017-Sep-21 03:55N 51°49' E 003°20'0 0.0
2017-Sep-21 03:31N 51°49' E 003°20'0 0.0
2017-Sep-21 02:55N 51°49' E 003°20'0 0.0
2017-Sep-21 02:12N 51°49' E 003°20'0 0.0
2017-Sep-21 01:52N 51°49' E 003°20'0 0.0
2017-Sep-21 01:24N 51°49' E 003°20'0 0.0
2017-Sep-21 01:01N 51°49' E 003°20'0 0.0
2017-Sep-21 00:28N 51°49' E 003°20'0 0.0
2017-Sep-20 23:49N 51°49' E 003°20'0 0.3
2017-Sep-20 23:30N 51°49' E 003°20'0 0.1
2017-Sep-20 22:43N 51°49' E 003°20'0 0.1
2017-Sep-20 22:25N 51°49' E 003°20'0 0.0
2017-Sep-20 21:30N 51°49' E 003°20'0 0.1
2017-Sep-20 19:10N 51°49' E 003°20'0 0.3
2017-Sep-20 18:58N 51°49' E 003°20'0 0.0
2017-Sep-20 11:52N 51°49' E 003°20'0 0.1
2017-Sep-20 09:04N 51°49' E 003°20'0 0.2
2017-Sep-20 08:52N 51°49' E 003°20'0 0.0
2017-Sep-20 08:25N 51°49' E 003°20'1 1.5
2017-Sep-20 08:00N 51°49' E 003°19'5 8.9
2017-Sep-20 07:27N 51°54' E 003°19'713.4
2017-Sep-20 06:55N 52°01' E 003°21'712.5
2017-Sep-20 06:21N 52°03' E 003°31'515.1
2017-Sep-20 05:59N 52°04' E 003°40'714.4
2017-Sep-20 05:30N 52°03' E 003°52'510.9
2017-Sep-20 05:01N 52°01' E 003°60'4 7.7
2017-Sep-20 04:30N 51°58' E 004°03'0 0.1
2017-Sep-20 03:56N 51°58' E 004°03'0 0.0
2017-Sep-20 03:29N 51°58' E 004°03'0 0.0
2017-Sep-20 03:00N 51°58' E 004°03'0 0.0
2017-Sep-20 02:30N 51°58' E 004°03'0 0.0
2017-Sep-20 02:01N 51°58' E 004°03'0 0.0
2017-Sep-20 01:30N 51°58' E 004°03'0 0.0
2017-Sep-20 01:00N 51°58' E 004°03'0 0.0
2017-Sep-20 00:30N 51°58' E 004°03'0 0.0
2017-Sep-20 00:00N 51°58' E 004°03'0 0.0
2017-Sep-19 23:30N 51°58' E 004°03'0 0.0
2017-Sep-19 23:01N 51°58' E 004°03'0 0.0
2017-Sep-19 22:31N 51°58' E 004°03'0 0.0
2017-Sep-19 22:00N 51°58' E 004°03'0 0.0
2017-Sep-19 21:31N 51°58' E 004°03'0 0.0
2017-Sep-19 21:00N 51°58' E 004°03'1 1.1
2017-Sep-19 20:30N 51°58' E 004°04'3 6.2
2017-Sep-19 20:00N 51°60' E 004°00'714.7
2017-Sep-19 19:30N 51°60' E 003°48'611.0
2017-Sep-19 19:00N 51°58' E 003°40'510.0
2017-Sep-19 18:30N 51°57' E 003°32'610.6
2017-Sep-19 17:56N 51°55' E 003°23'4 7.7
2017-Sep-19 17:26N 51°54' E 003°17'4 8.2
2017-Sep-19 17:00N 51°53' E 003°11'711.7
2017-Sep-19 16:27N 51°51' E 003°01'611.9
2017-Sep-19 15:59N 51°49' E 002°53'713.8
2017-Sep-19 15:28N 51°46' E 002°42'714.4
2017-Sep-19 14:59N 51°40' E 002°43'714.0
2017-Sep-19 14:30N 51°33' E 002°41'714.3
2017-Sep-19 14:00N 51°26' E 002°37'1 1.0
2017-Sep-19 13:28N 51°26' E 002°37'0 0.0
2017-Sep-19 12:55N 51°26' E 002°37'0 0.0
2017-Sep-19 12:07N 51°26' E 002°37'0 0.0
2017-Sep-19 11:58N 51°26' E 002°37'0 0.1
2017-Sep-19 11:28N 51°26' E 002°37'0 0.1
2017-Sep-19 10:58N 51°26' E 002°37'0 0.1
2017-Sep-19 10:31N 51°25' E 002°37'0 0.1
2017-Sep-19 09:58N 51°25' E 002°37'0 0.1
2017-Sep-19 09:28N 51°25' E 002°37'0 0.1
2017-Sep-19 08:58N 51°25' E 002°37'0 0.0
2017-Sep-19 08:28N 51°25' E 002°37'0 0.0
2017-Sep-19 07:52N 51°25' E 002°37'0 0.0
2017-Sep-19 07:28N 51°25' E 002°37'0 0.0
2017-Sep-19 06:55N 51°25' E 002°37'0 0.0
2017-Sep-19 06:28N 51°25' E 002°37'0 0.0
2017-Sep-19 05:58N 51°25' E 002°37'0 0.0
2017-Sep-19 05:28N 51°25' E 002°37'0 0.1
2017-Sep-19 04:58N 51°25' E 002°37'0 0.1
2017-Sep-19 04:28N 51°25' E 002°37'0 0.0
2017-Sep-19 03:58N 51°25' E 002°37'0 0.0
2017-Sep-19 03:28N 51°25' E 002°37'0 0.1
2017-Sep-19 02:58N 51°25' E 002°37'0 0.1
2017-Sep-19 02:22N 51°26' E 002°37'0 0.0
2017-Sep-18 23:07N 51°26' E 002°37'0 0.1
2017-Sep-18 19:49N 51°25' E 002°37'0 0.0
2017-Sep-18 16:58N 51°25' E 002°37'0 0.0
2017-Sep-18 16:28N 51°25' E 002°37'0 0.0
2017-Sep-18 15:50N 51°25' E 002°37'0 0.1
2017-Sep-18 14:18N 51°26' E 002°37'0 0.1
2017-Sep-18 13:48N 51°26' E 002°37'0 0.0
2017-Sep-18 12:54N 51°26' E 002°37'0 0.0
2017-Sep-18 11:51N 51°26' E 002°37'0 0.1
2017-Sep-18 11:26N 51°26' E 002°37'0 0.1
2017-Sep-18 08:14N 51°25' E 002°37'0 0.0
2017-Sep-18 07:45N 51°25' E 002°37'0 0.0
2017-Sep-18 07:30N 51°25' E 002°37'0 0.0
2017-Sep-18 06:08N 51°25' E 002°37'0 0.0
2017-Sep-18 05:50N 51°25' E 002°37'0 0.0
2017-Sep-18 05:26N 51°25' E 002°37'0 0.0
2017-Sep-18 04:08N 51°25' E 002°37'0 0.1
2017-Sep-18 04:00N 51°25' E 002°37'0 0.1
2017-Sep-18 02:27N 51°26' E 002°37'0 0.1
2017-Sep-18 01:57N 51°26' E 002°37'0 0.0
2017-Sep-18 00:41N 51°26' E 002°37'0 0.0
2017-Sep-18 00:20N 51°26' E 002°37'0 0.0
2017-Sep-17 23:57N 51°26' E 002°37'0 0.0
2017-Sep-17 23:29N 51°26' E 002°37'0 0.1
2017-Sep-17 23:00N 51°26' E 002°37'0 0.0
2017-Sep-17 22:30N 51°26' E 002°37'0 0.0
2017-Sep-17 21:59N 51°26' E 002°37'0 0.1
2017-Sep-17 21:29N 51°26' E 002°37'0 0.1
2017-Sep-17 20:59N 51°25' E 002°37'0 0.1
2017-Sep-17 20:29N 51°25' E 002°37'0 0.1
2017-Sep-17 19:59N 51°25' E 002°37'0 0.0
2017-Sep-17 19:26N 51°25' E 002°37'0 0.0
2017-Sep-17 18:59N 51°25' E 002°37'0 0.0
2017-Sep-17 18:29N 51°25' E 002°37'0 0.0
2017-Sep-17 18:00N 51°25' E 002°37'0 0.0
2017-Sep-17 17:30N 51°25' E 002°37'0 0.0
2017-Sep-17 16:59N 51°25' E 002°37'0 0.1
2017-Sep-17 16:29N 51°25' E 002°37'0 0.1
2017-Sep-17 16:00N 51°25' E 002°37'0 0.1
2017-Sep-17 15:30N 51°26' E 002°37'0 0.2
2017-Sep-17 14:59N 51°26' E 002°37'0 0.1
2017-Sep-17 14:29N 51°26' E 002°37'0 0.0
2017-Sep-17 13:59N 51°26' E 002°37'0 0.0
2017-Sep-17 13:29N 51°26' E 002°37'0 0.0
2017-Sep-17 12:59N 51°26' E 002°37'0 0.0
2017-Sep-17 12:29N 51°26' E 002°37'0 0.0
2017-Sep-17 11:59N 51°26' E 002°37'0 0.0
2017-Sep-17 11:30N 51°26' E 002°37'0 0.0
2017-Sep-17 10:59N 51°26' E 002°37'0 0.0
2017-Sep-17 10:29N 51°26' E 002°37'0 0.0
2017-Sep-17 10:00N 51°26' E 002°37'0 0.0
2017-Sep-17 09:29N 51°26' E 002°37'0 0.2
2017-Sep-17 08:59N 51°26' E 002°37'0 0.3
2017-Sep-17 08:30N 51°26' E 002°37'0 0.0
2017-Sep-17 08:00N 51°26' E 002°37'0 0.0
2017-Sep-17 07:29N 51°25' E 002°37'0 0.1
2017-Sep-17 06:59N 51°25' E 002°37'0 0.0
2017-Sep-17 06:29N 51°25' E 002°37'0 0.0
2017-Sep-17 05:59N 51°25' E 002°37'0 0.0
2017-Sep-17 05:30N 51°25' E 002°37'0 0.2
2017-Sep-17 04:59N 51°25' E 002°37'0 0.1
2017-Sep-17 04:29N 51°26' E 002°37'0 0.1
2017-Sep-17 03:59N 51°26' E 002°37'0 0.0
2017-Sep-17 03:29N 51°26' E 002°37'0 0.3
2017-Sep-17 02:59N 51°26' E 002°37'0 0.2
2017-Sep-17 02:30N 51°26' E 002°37'0 0.0
2017-Sep-17 02:00N 51°26' E 002°37'0 0.1
2017-Sep-17 01:29N 51°26' E 002°37'0 0.0
2017-Sep-17 01:00N 51°26' E 002°37'0 0.0
2017-Sep-17 00:29N 51°26' E 002°37'0 0.0
2017-Sep-16 23:59N 51°26' E 002°37'0 0.0
2017-Sep-16 23:30N 51°26' E 002°37'0 0.0
2017-Sep-16 22:59N 51°26' E 002°37'0 0.0
2017-Sep-16 22:30N 51°26' E 002°37'0 0.1
2017-Sep-16 22:00N 51°26' E 002°37'0 0.0
2017-Sep-16 21:29N 51°26' E 002°37'0 0.0
2017-Sep-16 20:59N 51°26' E 002°37'0 0.0
2017-Sep-16 20:29N 51°26' E 002°37'0 0.0
2017-Sep-16 20:00N 51°26' E 002°37'0 0.1
2017-Sep-16 19:29N 51°26' E 002°37'0 0.2
2017-Sep-16 18:56N 51°26' E 002°37'0 0.1
2017-Sep-16 18:29N 51°25' E 002°37'0 0.0
2017-Sep-16 17:59N 51°26' E 002°37'0 0.0
2017-Sep-16 17:29N 51°26' E 002°37'0 0.0
2017-Sep-16 16:59N 51°25' E 002°37'0 0.0
2017-Sep-16 16:29N 51°26' E 002°37'0 0.0
2017-Sep-16 15:59N 51°25' E 002°37'0 0.0
2017-Sep-16 15:29N 51°25' E 002°37'0 0.1
2017-Sep-16 14:59N 51°25' E 002°37'0 0.1
2017-Sep-16 14:29N 51°26' E 002°37'0 0.1
2017-Sep-16 13:56N 51°26' E 002°37'0 0.0
2017-Sep-16 13:30N 51°26' E 002°37'0 0.1
2017-Sep-16 12:59N 51°26' E 002°37'0 0.0
2017-Sep-16 12:29N 51°26' E 002°37'0 0.0
2017-Sep-16 11:56N 51°26' E 002°37'0 0.0
2017-Sep-16 11:29N 51°26' E 002°37'0 0.0
2017-Sep-16 10:59N 51°26' E 002°37'0 0.0
2017-Sep-16 10:30N 51°26' E 002°37'0 0.0
2017-Sep-16 09:59N 51°26' E 002°37'0 0.0
2017-Sep-16 09:29N 51°26' E 002°37'0 0.0
2017-Sep-16 08:59N 51°26' E 002°37'0 0.1
2017-Sep-16 08:29N 51°26' E 002°37'0 0.1
2017-Sep-16 07:53N 51°26' E 002°37'0 0.1
2017-Sep-16 07:29N 51°25' E 002°37'0 0.0
2017-Sep-16 06:56N 51°25' E 002°37'0 0.1
2017-Sep-16 06:30N 51°25' E 002°37'0 0.0
2017-Sep-16 05:59N 51°25' E 002°37'0 0.1
2017-Sep-16 05:27N 51°25' E 002°37'0 0.0
2017-Sep-16 04:59N 51°25' E 002°37'0 0.0
2017-Sep-16 04:29N 51°25' E 002°37'0 0.0
2017-Sep-16 03:54N 51°25' E 002°37'0 0.0
2017-Sep-16 03:29N 51°25' E 002°37'0 0.0
2017-Sep-16 02:59N 51°25' E 002°37'0 0.1
2017-Sep-16 02:29N 51°25' E 002°37'0 0.1
2017-Sep-16 01:59N 51°25' E 002°37'0 0.0
2017-Sep-16 01:30N 51°25' E 002°37'0 0.0
2017-Sep-16 00:59N 51°25' E 002°37'0 0.0
2017-Sep-16 00:29N 51°25' E 002°37'0 0.1
2017-Sep-15 23:59N 51°25' E 002°37'0 0.1
2017-Sep-15 23:29N 51°26' E 002°37'0 0.1
2017-Sep-15 22:59N 51°26' E 002°37'0 0.0
2017-Sep-15 22:29N 51°26' E 002°37'0 0.0
2017-Sep-15 21:59N 51°26' E 002°37'0 0.0
2017-Sep-15 21:26N 51°26' E 002°37'0 0.0
2017-Sep-15 20:59N 51°26' E 002°37'0 0.1
2017-Sep-15 20:29N 51°26' E 002°37'0 0.0
2017-Sep-15 19:57N 51°26' E 002°37'0 0.1
2017-Sep-15 19:29N 51°26' E 002°37'0 0.1
2017-Sep-15 18:59N 51°25' E 002°37'0 0.0
2017-Sep-15 18:29N 51°26' E 002°37'0 0.0
2017-Sep-15 17:59N 51°25' E 002°37'0 0.1
2017-Sep-15 17:26N 51°25' E 002°37'0 0.1
2017-Sep-15 16:59N 51°25' E 002°37'0 0.0
2017-Sep-15 16:29N 51°25' E 002°37'0 0.0
2017-Sep-15 15:59N 51°25' E 002°37'0 0.0
2017-Sep-15 15:29N 51°25' E 002°37'0 0.0
2017-Sep-15 14:59N 51°25' E 002°37'0 0.0
2017-Sep-15 14:29N 51°25' E 002°37'0 0.1
2017-Sep-15 13:59N 51°25' E 002°37'0 0.1
2017-Sep-15 13:29N 51°25' E 002°37'0 0.1
2017-Sep-15 12:59N 51°25' E 002°37'0 0.0
2017-Sep-15 12:29N 51°26' E 002°37'0 0.0
2017-Sep-15 11:59N 51°26' E 002°37'0 0.1
2017-Sep-15 11:29N 51°26' E 002°37'0 0.1
2017-Sep-15 10:59N 51°26' E 002°37'0 0.0
2017-Sep-15 10:29N 51°26' E 002°37'0 0.0
2017-Sep-15 09:57N 51°26' E 002°37'0 0.0
2017-Sep-15 09:29N 51°26' E 002°37'0 0.0
2017-Sep-15 08:59N 51°26' E 002°37'0 0.0
2017-Sep-15 08:29N 51°26' E 002°37'0 0.0
2017-Sep-15 07:59N 51°26' E 002°37'0 0.0
2017-Sep-15 07:27N 51°26' E 002°37'0 0.0
2017-Sep-15 06:59N 51°26' E 002°37'0 0.1
2017-Sep-15 06:29N 51°26' E 002°37'0 0.1
2017-Sep-15 05:59N 51°25' E 002°37'0 0.0
2017-Sep-15 05:29N 51°25' E 002°37'0 0.1
2017-Sep-15 05:00N 51°25' E 002°37'0 0.1
2017-Sep-15 04:23N 51°25' E 002°37'0 0.1
2017-Sep-15 03:59N 51°25' E 002°37'0 0.0
2017-Sep-15 03:29N 51°25' E 002°37'0 0.0
2017-Sep-15 02:59N 51°25' E 002°37'0 0.0
2017-Sep-15 02:29N 51°25' E 002°37'0 0.0
2017-Sep-15 01:59N 51°25' E 002°37'0 0.0
2017-Sep-15 01:29N 51°25' E 002°37'0 0.1
2017-Sep-15 00:59N 51°25' E 002°37'0 0.1
2017-Sep-15 00:29N 51°25' E 002°37'0 0.0
2017-Sep-14 23:59N 51°25' E 002°37'0 0.0
2017-Sep-14 23:26N 51°25' E 002°37'0 0.1
2017-Sep-14 22:59N 51°25' E 002°37'0 0.4
2017-Sep-14 22:30N 51°25' E 002°37'3 5.8
2017-Sep-14 22:01N 51°23' E 002°41'4 8.0
2017-Sep-14 21:30N 51°22' E 002°47'713.2
2017-Sep-14 21:00N 51°23' E 002°57'713.2
2017-Sep-14 20:30N 51°24' E 003°08'713.6
2017-Sep-14 20:00N 51°25' E 003°19'713.5
2017-Sep-14 19:30N 51°25' E 003°29'510.4
2017-Sep-14 19:00N 51°26' E 003°37'612.1
2017-Sep-14 18:30N 51°22' E 003°45'612.8
2017-Sep-14 18:00N 51°22' E 003°55'611.1
2017-Sep-14 17:30N 51°26' E 004°02'510.8
2017-Sep-14 17:00N 51°23' E 004°09'5 9.6
2017-Sep-14 16:31N 51°21' E 004°16'3 6.4
2017-Sep-14 16:00N 51°17' E 004°15'0 0.1
2017-Sep-14 15:30N 51°17' E 004°15'0 0.1
2017-Sep-14 15:00N 51°17' E 004°15'0 0.0
2017-Sep-14 14:30N 51°17' E 004°15'0 0.0
2017-Sep-14 14:00N 51°17' E 004°15'0 0.0
2017-Sep-14 13:30N 51°17' E 004°15'0 0.0
2017-Sep-14 13:00N 51°17' E 004°15'0 0.0
2017-Sep-14 12:30N 51°17' E 004°15'0 0.0
2017-Sep-14 12:00N 51°17' E 004°15'0 0.0
2017-Sep-14 11:27N 51°17' E 004°15'0 0.0
2017-Sep-14 11:00N 51°17' E 004°15'0 0.0
2017-Sep-14 10:30N 51°17' E 004°15'0 0.0
2017-Sep-14 10:00N 51°17' E 004°15'0 0.0
2017-Sep-14 09:30N 51°17' E 004°15'0 0.0
2017-Sep-14 09:00N 51°17' E 004°15'0 0.0
2017-Sep-14 08:31N 51°17' E 004°15'0 0.0
2017-Sep-14 08:00N 51°17' E 004°15'0 0.0
2017-Sep-14 07:30N 51°17' E 004°15'0 0.0
2017-Sep-14 07:00N 51°17' E 004°15'0 0.0
2017-Sep-14 06:30N 51°17' E 004°15'0 0.0
2017-Sep-14 06:00N 51°17' E 004°15'0 0.0
2017-Sep-14 05:30N 51°17' E 004°15'0 0.0
2017-Sep-14 05:00N 51°17' E 004°15'0 0.0
2017-Sep-14 04:30N 51°17' E 004°15'0 0.9
2017-Sep-14 04:00N 51°18' E 004°16'2 4.6
2017-Sep-14 03:30N 51°20' E 004°16'4 8.6
2017-Sep-14 03:01N 51°24' E 004°13'611.6
2017-Sep-14 02:30N 51°22' E 004°03'4 8.2
2017-Sep-14 02:00N 51°24' E 003°57'713.9
2017-Sep-14 01:30N 51°21' E 003°47'714.2
2017-Sep-14 01:00N 51°26' E 003°40'510.6
2017-Sep-14 00:31N 51°25' E 003°32'714.7
2017-Sep-14 00:01N 51°24' E 003°20'714.6
2017-Sep-13 23:31N 51°24' E 003°08'714.9
2017-Sep-13 23:01N 51°23' E 002°57'714.6
2017-Sep-13 22:30N 51°21' E 002°45'3 5.4
2017-Sep-13 22:00N 51°21' E 002°41'2 3.9
2017-Sep-13 21:30N 51°21' E 002°38'2 3.3
2017-Sep-13 21:00N 51°22' E 002°35'1 2.1
2017-Sep-13 20:30N 51°21' E 002°34'1 2.9
2017-Sep-13 20:00N 51°21' E 002°36'2 3.2
2017-Sep-13 19:30N 51°22' E 002°33'3 6.1
2017-Sep-13 19:00N 51°22' E 002°28'3 7.0
2017-Sep-13 18:30N 51°20' E 002°23'612.4
2017-Sep-13 18:00N 51°17' E 002°15'713.2
2017-Sep-13 17:31N 51°13' E 002°06'815.8
2017-Sep-13 17:01N 51°10' E 001°55'917.2
2017-Sep-13 16:31N 51°05' E 001°43'917.5
2017-Sep-13 16:01N 50°59' E 001°34'5416.0
2017-Sep-13 12:38N 50°25' E 000°28'217.6
2017-Sep-13 12:30N 50°25' E 000°24'917.7
2017-Sep-13 12:01N 50°22' E 000°11'917.4
2017-Sep-13 11:31N 50°20' W 000°02'917.2
2017-Sep-13 11:01N 50°18' W 000°15'2316.6
2017-Sep-13 09:37N 50°11' W 000°49'215.8
2017-Sep-13 09:30N 50°10' W 000°52'815.5
2017-Sep-13 09:00N 50°08' W 001°04'714.9
2017-Sep-13 08:30N 50°06' W 001°15'714.3
2017-Sep-13 08:01N 50°04' W 001°26'713.9
2017-Sep-13 07:30N 50°02' W 001°36'713.6
2017-Sep-13 07:00N 50°00' W 001°46'713.4
2017-Sep-13 06:30N 49°59' W 001°56'713.2
2017-Sep-13 06:00N 49°57' W 002°06'2814.4
2017-Sep-13 04:02N 49°50' W 002°49'015.1
2017-Sep-13 04:00N 49°50' W 002°49'1015.5
2017-Sep-13 03:22N 49°48' W 003°05'615.8
2017-Sep-13 03:00N 49°47' W 003°13'815.8
2017-Sep-13 02:30N 49°45' W 003°25'815.8
2017-Sep-13 02:00N 49°44' W 003°37'816.0
2017-Sep-13 01:30N 49°43' W 003°50'816.1
2017-Sep-13 01:00N 49°42' W 004°02'916.3
2017-Sep-13 00:28N 49°41' W 004°16'816.5
2017-Sep-12 23:58N 49°40' W 004°28'816.4
2017-Sep-12 23:30N 49°40' W 004°40'1016.7
2017-Sep-12 22:55N 49°40' W 004°55'716.9
2017-Sep-12 22:30N 49°41' W 005°06'917.2
2017-Sep-12 22:00N 49°42' W 005°19'1017.1
2017-Sep-12 21:25N 49°45' W 005°34'717.0
2017-Sep-12 21:00N 49°48' W 005°44'816.2
2017-Sep-12 20:30N 49°52' W 005°55'3513.8
2017-Sep-12 17:59N 50°26' W 005°59'714.0
2017-Sep-12 17:29N 50°33' W 005°60'613.7
2017-Sep-12 17:00N 50°40' W 005°60'714.1
2017-Sep-12 16:30N 50°47' W 005°60'6713.5
2017-Sep-12 11:34N 51°53' W 005°53'113.7
2017-Sep-12 11:30N 51°54' W 005°53'713.8
2017-Sep-12 11:00N 52°01' W 005°50'714.0
2017-Sep-12 10:30N 52°08' W 005°48'714.5
2017-Sep-12 10:00N 52°15' W 005°46'815.0
2017-Sep-12 09:30N 52°22' W 005°45'815.5
2017-Sep-12 09:00N 52°30' W 005°43'816.1
2017-Sep-12 08:30N 52°38' W 005°41'3916.4
2017-Sep-12 06:08N 53°17' W 005°48'317.4
2017-Sep-12 05:57N 53°18' W 005°53'712.0
2017-Sep-12 05:21N 53°20' W 006°05'3 9.5
2017-Sep-12 04:59N 53°21' W 006°10'  

Dump ship's entire track history